Time;durP1;ratioP1;P1;durP2;ratioP2;P2;SDS_P1;SDS_P2;PMS_P1;PMS_P2;Temp;Humidity;BMP_temperature;BMP_pressure;BME280_temperature;BME280_humidity;BME280_pressure;Samples;Min_cycle;Max_cycle;Signal;HPM_P1;HPM_P2
2023/06/22 00:00:14;;;;;;;15.70;10.67;;;26.80;60.50;;;;;;5065384;28;20480;-89
2023/06/22 00:02:41;;;;;;;19.83;10.57;;;26.60;60.80;;;;;;5082309;28;20439;-89
2023/06/22 00:05:08;;;;;;;17.03;9.97;;;26.20;61.90;;;;;;5073823;28;20440;-89
2023/06/22 00:07:37;;;;;;;12.43;10.60;;;26.20;62.50;;;;;;5046352;28;20444;-88
2023/06/22 00:10:04;;;;;;;10.87;9.77;;;26.30;61.70;;;;;;5043212;28;20493;-89
2023/06/22 00:12:32;;;;;;;14.53;9.80;;;26.40;61.60;;;;;;5091435;28;20452;-89
2023/06/22 00:14:59;;;;;;;14.30;10.60;;;26.40;60.50;;;;;;5088235;28;20475;-89
2023/06/22 00:17:26;;;;;;;12.60;10.10;;;26.40;60.60;;;;;;5063609;28;20841;-89
2023/06/22 00:19:55;;;;;;;11.60;10.40;;;26.40;61.00;;;;;;5046997;28;20475;-89
2023/06/22 00:22:28;;;;;;;13.83;9.90;;;26.50;60.60;;;;;;5045424;28;20443;-89
2023/06/22 00:24:57;;;;;;;15.13;10.25;;;26.50;60.80;;;;;;5087689;28;22464;-89
2023/06/22 00:27:24;;;;;;;10.97;9.83;;;26.50;60.60;;;;;;5087222;28;20284;-89
2023/06/22 00:29:51;;;;;;;12.87;10.20;;;26.60;60.60;;;;;;5047264;28;20466;-87
2023/06/22 00:32:18;;;;;;;13.57;9.83;;;26.50;60.60;;;;;;5082311;28;20497;-90
2023/06/22 00:34:47;;;;;;;12.10;10.20;;;26.60;60.50;;;;;;5084589;28;20473;-89
2023/06/22 00:37:14;;;;;;;12.27;9.80;;;26.40;60.50;;;;;;5042116;28;20864;-89
2023/06/22 00:39:41;;;;;;;12.60;10.53;;;26.40;60.50;;;;;;5067119;28;20451;-89
2023/06/22 00:42:10;;;;;;;13.07;10.53;;;26.50;60.30;;;;;;5044464;28;20454;-89
2023/06/22 00:44:37;;;;;;;12.83;10.10;;;26.60;59.90;;;;;;5072664;28;20443;-89
2023/06/22 00:47:06;;;;;;;15.77;11.53;;;26.60;59.70;;;;;;5037319;28;20452;-89
2023/06/22 00:49:33;;;;;;;11.40;9.30;;;26.60;59.40;;;;;;5061757;28;20467;-89
2023/06/22 00:52:00;;;;;;;11.37;10.20;;;26.60;59.70;;;;;;5073471;28;20527;-89
2023/06/22 00:54:28;;;;;;;10.83;9.50;;;26.40;58.80;;;;;;5088254;28;20472;-90
2023/06/22 00:56:57;;;;;;;18.30;10.93;;;26.40;58.80;;;;;;5104932;27;21753;-89
2023/06/22 00:59:27;;;;;;;13.50;10.27;;;26.40;59.20;;;;;;5090953;28;20442;-89
2023/06/22 01:01:54;;;;;;;14.23;11.37;;;26.40;59.70;;;;;;5054340;28;21010;-89
2023/06/22 01:04:22;;;;;;;11.20;9.87;;;26.40;59.90;;;;;;5065163;28;20450;-90
2023/06/22 01:07:08;;;;;;;13.00;10.73;;;26.40;60.00;;;;;;5088373;28;20458;-89
2023/06/22 01:09:41;;;;;;;11.77;9.53;;;26.50;59.90;;;;;;5057370;28;20455;-89
2023/06/22 01:12:10;;;;;;;11.93;10.30;;;26.50;59.70;;;;;;5066032;28;20464;-89
2023/06/22 01:14:44;;;;;;;17.63;11.67;;;26.40;59.50;;;;;;5072735;28;20495;-89
2023/06/22 01:17:16;;;;;;;13.70;10.63;;;26.40;59.90;;;;;;5045596;28;20853;-88
2023/06/22 01:19:47;;;;;;;14.27;11.37;;;26.40;59.60;;;;;;5078977;28;20468;-88
2023/06/22 01:22:18;;;;;;;12.70;11.03;;;26.30;59.30;;;;;;5106852;27;20442;-90
2023/06/22 01:24:55;;;;;;;12.80;10.23;;;26.30;59.70;;;;;;5072041;28;20443;-89
2023/06/22 01:27:34;;;;;;;11.67;10.37;;;26.30;60.30;;;;;;5041160;28;20446;-89
2023/06/22 01:30:07;;;;;;;12.80;11.47;;;26.20;60.60;;;;;;5069541;28;20459;-89
2023/06/22 01:32:38;;;;;;;14.77;10.27;;;26.20;61.30;;;;;;5079761;28;20462;-88
2023/06/22 01:35:07;;;;;;;12.70;10.20;;;26.20;61.70;;;;;;5047885;28;20996;-89
2023/06/22 01:37:36;;;;;;;27.17;11.50;;;26.20;61.80;;;;;;5068877;28;20459;-89
2023/06/22 01:40:05;;;;;;;10.50;9.40;;;26.20;62.10;;;;;;5044603;28;20999;-88
2023/06/22 01:42:32;;;;;;;16.80;10.30;;;26.10;62.20;;;;;;5080658;28;20439;-90
2023/06/22 01:45:01;;;;;;;11.57;10.17;;;26.00;62.70;;;;;;5048007;28;21085;-89
2023/06/22 01:47:29;;;;;;;12.23;10.20;;;25.70;63.40;;;;;;5057035;28;20921;-88
2023/06/22 01:49:57;;;;;;;16.57;11.20;;;25.50;64.00;;;;;;5038456;28;20478;-89
2023/06/22 01:52:23;;;;;;;15.30;10.30;;;25.40;64.70;;;;;;5045709;28;21117;-89
2023/06/22 01:54:50;;;;;;;15.10;11.30;;;25.30;65.10;;;;;;5085700;28;20475;-90
2023/06/22 01:57:20;;;;;;;15.30;11.63;;;25.10;66.20;;;;;;5092640;28;20440;-89
2023/06/22 01:59:53;;;;;;;22.90;11.43;;;25.00;67.40;;;;;;5086805;28;20987;-89
2023/06/22 02:02:26;;;;;;;16.73;12.17;;;24.90;68.50;;;;;;5058601;28;20465;-89
2023/06/22 02:04:59;;;;;;;16.40;11.80;;;24.90;68.70;;;;;;5039758;28;21136;-88
2023/06/22 02:07:33;;;;;;;13.15;11.57;;;24.90;69.00;;;;;;5061459;28;20458;-89
2023/06/22 02:10:04;;;;;;;11.90;10.70;;;24.90;69.30;;;;;;5064700;28;20224;-89
2023/06/22 02:12:33;;;;;;;13.47;11.20;;;24.90;69.50;;;;;;5091541;28;20458;-88
2023/06/22 02:15:01;;;;;;;14.23;12.07;;;24.70;69.50;;;;;;5072036;28;20829;-87
2023/06/22 02:17:28;;;;;;;15.90;11.90;;;24.40;71.30;;;;;;5059417;28;20484;-87
2023/06/22 02:19:56;;;;;;;15.43;11.67;;;24.10;73.10;;;;;;5083392;28;20459;-87
2023/06/22 02:22:23;;;;;;;17.03;13.23;;;24.20;73.20;;;;;;5088358;28;20438;-87
2023/06/22 02:24:50;;;;;;;17.10;13.70;;;24.20;73.00;;;;;;5068567;28;20476;-86
2023/06/22 02:27:17;;;;;;;14.97;13.37;;;24.30;72.60;;;;;;5083096;28;20448;-87
2023/06/22 02:29:44;;;;;;;15.23;13.30;;;24.30;72.50;;;;;;5039097;28;21118;-87
2023/06/22 02:32:11;;;;;;;26.93;16.30;;;24.30;73.10;;;;;;5055528;28;20447;-88
2023/06/22 02:34:39;;;;;;;22.50;14.37;;;24.50;71.90;;;;;;5059898;27;20500;-86
2023/06/22 02:37:07;;;;;;;16.10;13.00;;;24.70;71.20;;;;;;5058657;28;20444;-87
2023/06/22 02:39:34;;;;;;;16.50;13.63;;;24.80;70.60;;;;;;5074644;28;20728;-87
2023/06/22 02:42:01;;;;;;;16.30;12.80;;;25.00;70.30;;;;;;5060024;28;20449;-86
2023/06/22 02:44:28;;;;;;;16.20;12.13;;;25.10;69.20;;;;;;5040501;28;20456;-87
2023/06/22 02:46:56;;;;;;;14.70;12.93;;;25.30;69.10;;;;;;5040969;28;21406;-87
2023/06/22 02:49:23;;;;;;;16.20;13.70;;;25.50;68.60;;;;;;5066191;28;20466;-88
2023/06/22 02:51:50;;;;;;;16.87;14.00;;;25.60;67.60;;;;;;5061007;28;20547;-87
2023/06/22 02:54:21;;;;;;;18.67;13.33;;;25.70;66.60;;;;;;5082571;28;20495;-86
2023/06/22 02:56:50;;;;;;;17.33;14.80;;;25.80;66.40;;;;;;5071488;28;20458;-87
2023/06/22 02:59:23;;;;;;;17.47;13.87;;;25.90;66.20;;;;;;5050598;28;20530;-87
2023/06/22 03:01:51;;;;;;;17.83;13.07;;;26.00;66.00;;;;;;5056270;27;21026;-87
2023/06/22 03:04:25;;;;;;;15.87;14.20;;;26.10;66.00;;;;;;5050141;28;20499;-86
2023/06/22 03:06:52;;;;;;;22.67;14.10;;;26.10;65.60;;;;;;5063434;28;20495;-86
2023/06/22 03:09:20;;;;;;;15.40;13.10;;;26.00;65.80;;;;;;5049491;28;20534;-87
2023/06/22 03:11:47;;;;;;;18.13;14.40;;;26.00;65.50;;;;;;5043427;28;20482;-87
2023/06/22 03:14:14;;;;;;;19.40;13.80;;;25.90;65.00;;;;;;5058373;28;20470;-87
2023/06/22 03:16:41;;;;;;;14.88;13.30;;;26.00;65.70;;;;;;5045692;28;20579;-87
2023/06/22 03:19:08;;;;;;;16.60;13.50;;;26.00;66.10;;;;;;5059724;28;20202;-87
2023/06/22 03:21:38;;;;;;;14.00;12.50;;;26.10;65.80;;;;;;5080813;28;20542;-87
2023/06/22 03:24:06;;;;;;;15.37;13.00;;;26.10;65.00;;;;;;5074008;28;21165;-87
2023/06/22 03:26:34;;;;;;;16.17;14.47;;;26.10;65.30;;;;;;5066773;28;20954;-87
2023/06/22 03:29:01;;;;;;;17.13;13.87;;;26.00;65.50;;;;;;5076344;28;20470;-87
2023/06/22 03:31:29;;;;;;;17.30;13.83;;;26.10;65.80;;;;;;5061063;28;21063;-88
2023/06/22 03:33:57;;;;;;;16.17;14.47;;;26.10;65.70;;;;;;5037776;28;20467;-87
2023/06/22 03:36:24;;;;;;;16.50;14.50;;;26.00;66.70;;;;;;5057444;28;20475;-87
2023/06/22 03:38:52;;;;;;;17.00;13.27;;;26.10;65.80;;;;;;5042513;28;21005;-87
2023/06/22 03:41:20;;;;;;;16.53;13.63;;;26.00;66.00;;;;;;5054278;28;20466;-86
2023/06/22 03:43:49;;;;;;;17.03;13.67;;;26.10;65.70;;;;;;5082510;28;20444;-87
2023/06/22 03:46:16;;;;;;;17.73;12.87;;;26.10;65.70;;;;;;5073813;28;21059;-87
2023/06/22 03:48:44;;;;;;;15.03;13.20;;;26.20;65.60;;;;;;5074951;28;20456;-87
2023/06/22 03:51:10;;;;;;;13.57;11.73;;;26.20;65.00;;;;;;5091963;28;20515;-88
2023/06/22 03:53:37;;;;;;;14.87;12.57;;;26.20;65.20;;;;;;5059626;28;20460;-87
2023/06/22 03:56:04;;;;;;;15.87;14.07;;;26.20;64.80;;;;;;5057098;28;20478;-87
2023/06/22 03:58:32;;;;;;;16.37;13.20;;;26.10;65.30;;;;;;5042750;28;20960;-87
2023/06/22 04:01:00;;;;;;;19.17;12.90;;;26.20;65.40;;;;;;5072876;28;20462;-87
2023/06/22 04:03:27;;;;;;;19.97;13.60;;;26.00;65.40;;;;;;5075587;28;20455;-88
2023/06/22 04:05:54;;;;;;;19.17;13.63;;;26.00;65.00;;;;;;5077124;28;20541;-88
2023/06/22 04:08:21;;;;;;;16.40;13.02;;;26.00;65.70;;;;;;5054346;28;20502;-88
2023/06/22 04:10:48;;;;;;;23.03;14.70;;;26.00;65.50;;;;;;5043059;28;20221;-87
2023/06/22 04:13:16;;;;;;;16.60;13.10;;;25.70;66.80;;;;;;5090423;28;20967;-88
2023/06/22 04:15:43;;;;;;;17.37;13.60;;;25.80;66.60;;;;;;5043867;28;20834;-87
2023/06/22 04:18:11;;;;;;;17.43;13.83;;;25.90;65.60;;;;;;5077463;28;20452;-88
2023/06/22 04:20:38;;;;;;;15.17;13.47;;;26.10;65.80;;;;;;5073789;28;20474;-87
2023/06/22 04:23:05;;;;;;;17.07;13.17;;;26.10;65.30;;;;;;5080348;28;20439;-88
2023/06/22 04:25:32;;;;;;;15.83;13.90;;;26.10;65.00;;;;;;5045038;28;20449;-87
2023/06/22 04:28:03;;;;;;;16.73;14.18;;;26.20;65.20;;;;;;5091607;28;21246;-87
2023/06/22 04:30:31;;;;;;;17.00;14.20;;;26.20;64.00;;;;;;5083901;28;20295;-87
2023/06/22 04:32:58;;;;;;;16.40;14.03;;;26.20;64.30;;;;;;5048335;28;20451;-87
2023/06/22 04:35:28;;;;;;;18.20;15.47;;;26.20;64.80;;;;;;5052215;28;20460;-86
2023/06/22 04:37:56;;;;;;;14.43;12.93;;;26.20;65.10;;;;;;5066179;28;21048;-86
2023/06/22 04:40:24;;;;;;;18.05;14.80;;;26.20;65.10;;;;;;5053117;28;20471;-85
2023/06/22 04:42:53;;;;;;;17.37;14.00;;;26.30;65.10;;;;;;5103348;27;20586;-86
2023/06/22 04:45:21;;;;;;;17.27;14.83;;;26.30;65.10;;;;;;5076883;28;20854;-87
2023/06/22 04:47:48;;;;;;;14.83;13.00;;;26.30;65.20;;;;;;5067425;28;20544;-87
2023/06/22 04:50:16;;;;;;;17.93;15.23;;;26.40;65.10;;;;;;5088833;28;20479;-86
2023/06/22 04:52:45;;;;;;;18.10;14.33;;;26.40;65.10;;;;;;5067897;28;20477;-86
2023/06/22 04:55:12;;;;;;;17.50;15.60;;;26.40;65.00;;;;;;5100837;27;20948;-86
2023/06/22 04:57:39;;;;;;;16.97;14.00;;;26.50;65.00;;;;;;5069537;28;20446;-85
2023/06/22 05:00:16;;;;;;;16.80;14.13;;;26.50;65.10;;;;;;5067540;28;20550;-86
2023/06/22 05:02:44;;;;;;;19.60;16.43;;;26.50;65.10;;;;;;5088394;28;20455;-86
2023/06/22 05:05:13;;;;;;;16.90;15.03;;;26.50;65.00;;;;;;5071521;28;20523;-86
2023/06/22 05:07:43;;;;;;;16.50;14.53;;;26.40;64.80;;;;;;5060582;28;20462;-86
2023/06/22 05:10:12;;;;;;;20.67;15.10;;;26.50;65.40;;;;;;5069915;28;21134;-86
2023/06/22 05:12:39;;;;;;;16.70;14.90;;;26.50;65.20;;;;;;5044627;28;20539;-86
2023/06/22 05:15:08;;;;;;;19.43;14.27;;;26.40;65.40;;;;;;5060123;28;20468;-85
2023/06/22 05:17:35;;;;;;;16.40;13.97;;;26.40;65.70;;;;;;5060292;28;20447;-86
2023/06/22 05:20:02;;;;;;;19.57;16.13;;;26.40;65.80;;;;;;5086896;28;20471;-86
2023/06/22 05:22:30;;;;;;;21.73;16.77;;;26.40;65.80;;;;;;5069147;28;20805;-86
2023/06/22 05:24:57;;;;;;;21.87;15.90;;;26.40;66.00;;;;;;5069016;28;20451;-87
2023/06/22 05:27:28;;;;;;;19.00;14.80;;;26.50;66.10;;;;;;5087277;28;20463;-86
2023/06/22 05:29:55;;;;;;;17.93;15.63;;;26.60;66.00;;;;;;5051775;28;20478;-86
2023/06/22 05:32:22;;;;;;;18.53;14.87;;;26.60;64.90;;;;;;5038788;28;20456;-86
2023/06/22 05:34:49;;;;;;;20.73;15.68;;;26.40;65.10;;;;;;5045620;28;20479;-85
2023/06/22 05:37:16;;;;;;;19.37;15.00;;;26.50;65.10;;;;;;5054939;28;20420;-86
2023/06/22 05:39:43;;;;;;;17.17;14.13;;;26.40;65.00;;;;;;5039805;28;20451;-86
2023/06/22 05:42:10;;;;;;;15.03;13.40;;;26.40;65.30;;;;;;5077272;28;20467;-86
2023/06/22 05:44:40;;;;;;;16.60;14.90;;;26.50;65.40;;;;;;5061717;28;21136;-86
2023/06/22 05:47:07;;;;;;;19.17;15.30;;;26.60;65.70;;;;;;5070725;28;20453;-86
2023/06/22 05:49:34;;;;;;;18.53;14.90;;;26.60;66.00;;;;;;5068577;28;20207;-86
2023/06/22 05:52:01;;;;;;;17.00;14.80;;;26.80;65.30;;;;;;5084763;28;20453;-86
2023/06/22 05:54:29;;;;;;;21.03;15.60;;;26.90;65.20;;;;;;5044119;28;21066;-85
2023/06/22 05:56:56;;;;;;;17.08;14.93;;;27.00;64.40;;;;;;5043389;28;20478;-87
2023/06/22 05:59:23;;;;;;;17.30;15.17;;;27.10;64.40;;;;;;5052866;28;20205;-86
2023/06/22 06:01:51;;;;;;;23.20;16.27;;;27.20;64.50;;;;;;5067243;28;20467;-86
2023/06/22 06:04:18;;;;;;;16.13;14.43;;;27.30;64.20;;;;;;5084791;28;20459;-86
2023/06/22 06:06:46;;;;;;;17.20;14.50;;;27.40;63.60;;;;;;5091941;28;20434;-86
2023/06/22 06:09:13;;;;;;;16.48;14.77;;;27.50;63.70;;;;;;5073092;28;20967;-85
2023/06/22 06:11:41;;;;;;;21.90;13.43;;;27.50;63.90;;;;;;5072647;28;20497;-85
2023/06/22 06:14:08;;;;;;;14.30;12.40;;;27.30;63.00;;;;;;5102607;27;20521;-85
2023/06/22 06:16:35;;;;;;;14.70;12.97;;;27.40;62.90;;;;;;5045181;28;20460;-85
2023/06/22 06:19:04;;;;;;;16.75;13.63;;;27.30;63.60;;;;;;5106359;27;20956;-85
2023/06/22 06:21:30;;;;;;;14.43;12.77;;;27.50;62.80;;;;;;5060638;28;20217;-85
2023/06/22 06:23:58;;;;;;;16.87;13.10;;;27.50;63.10;;;;;;5072306;28;20448;-84
2023/06/22 06:26:29;;;;;;;14.97;12.50;;;27.40;62.80;;;;;;5072244;28;20994;-85
2023/06/22 06:28:56;;;;;;;15.83;12.93;;;27.60;63.30;;;;;;5057748;28;20542;-85
2023/06/22 06:31:24;;;;;;;15.23;13.47;;;27.60;61.70;;;;;;5075535;28;20463;-86
2023/06/22 06:33:51;;;;;;;15.83;13.57;;;27.70;62.80;;;;;;5074874;28;20470;-85
2023/06/22 06:36:19;;;;;;;16.43;12.80;;;27.80;62.60;;;;;;5057799;28;20464;-86
2023/06/22 06:38:47;;;;;;;13.93;12.43;;;27.80;61.90;;;;;;5065341;28;20451;-86
2023/06/22 06:41:14;;;;;;;14.30;12.80;;;27.70;62.40;;;;;;5061332;28;20467;-88
2023/06/22 06:43:42;;;;;;;13.90;12.50;;;27.80;63.10;;;;;;5058247;28;20965;-85
2023/06/22 06:46:09;;;;;;;16.60;12.20;;;27.80;62.50;;;;;;5058649;28;20445;-85
2023/06/22 06:48:36;;;;;;;16.07;13.40;;;27.80;62.50;;;;;;5058442;28;20446;-85
2023/06/22 06:51:03;;;;;;;13.73;11.57;;;27.90;62.40;;;;;;5057677;28;20459;-86
2023/06/22 06:53:32;;;;;;;15.63;12.57;;;28.10;62.30;;;;;;5058725;28;20447;-85
2023/06/22 06:55:59;;;;;;;16.00;12.10;;;28.20;61.10;;;;;;5063350;28;20472;-84
2023/06/22 06:58:26;;;;;;;12.47;11.27;;;28.10;60.90;;;;;;5092702;28;20470;-85
2023/06/22 07:00:53;;;;;;;14.63;12.70;;;28.20;61.90;;;;;;5094665;28;20528;-84
2023/06/22 07:03:20;;;;;;;14.90;11.47;;;28.50;61.40;;;;;;5094763;28;20971;-84
2023/06/22 07:05:47;;;;;;;13.63;11.60;;;28.80;59.70;;;;;;5060483;28;20452;-85
2023/06/22 07:08:13;;;;;;;16.80;11.17;;;28.80;59.90;;;;;;5084751;28;21363;-84
2023/06/22 07:10:42;;;;;;;14.30;12.80;;;28.80;59.60;;;;;;5064662;28;20475;-85
2023/06/22 07:13:09;;;;;;;13.63;12.20;;;28.90;59.20;;;;;;5053083;28;20447;-86
2023/06/22 07:15:36;;;;;;;13.30;11.90;;;28.90;59.50;;;;;;5056546;28;20505;-85
2023/06/22 07:18:03;;;;;;;13.40;12.00;;;29.20;59.30;;;;;;5053122;28;20465;-85
2023/06/22 07:20:30;;;;;;;15.67;13.13;;;29.20;58.40;;;;;;5077628;28;20506;-84
2023/06/22 07:22:58;;;;;;;13.90;12.50;;;29.30;58.10;;;;;;5050291;28;20447;-86
2023/06/22 07:25:25;;;;;;;14.20;11.93;;;29.10;58.40;;;;;;5045042;28;20979;-84
2023/06/22 07:28:02;;;;;;;12.73;11.48;;;29.20;59.00;;;;;;5049244;28;20465;-85
2023/06/22 07:30:30;;;;;;;14.60;11.93;;;29.20;59.00;;;;;;5076306;28;20217;-85
2023/06/22 07:32:58;;;;;;;13.23;11.83;;;29.30;58.40;;;;;;5059232;28;20453;-84
2023/06/22 07:35:25;;;;;;;13.83;12.43;;;29.40;57.70;;;;;;5076570;28;21066;-85
2023/06/22 07:37:52;;;;;;;13.60;12.03;;;29.40;57.00;;;;;;5075973;28;20578;-86
2023/06/22 07:40:19;;;;;;;14.43;11.80;;;29.30;57.50;;;;;;5077223;28;20465;-87
2023/06/22 07:42:48;;;;;;;12.30;11.00;;;29.30;57.40;;;;;;5042689;27;20456;-87
2023/06/22 07:45:16;;;;;;;12.27;10.97;;;29.40;57.30;;;;;;5064773;28;20447;-87
2023/06/22 07:47:43;;;;;;;14.70;11.10;;;29.60;57.60;;;;;;5073391;28;20458;-87
2023/06/22 07:50:11;;;;;;;19.17;12.10;;;29.80;57.90;;;;;;5095737;28;20463;-87
2023/06/22 07:52:38;;;;;;;12.60;11.30;;;29.90;56.30;;;;;;5060129;28;20485;-86
2023/06/22 07:55:05;;;;;;;12.90;11.60;;;30.00;56.30;;;;;;5047803;28;20957;-86
2023/06/22 07:57:36;;;;;;;13.90;11.27;;;30.10;56.50;;;;;;5073206;28;20472;-87
2023/06/22 08:00:11;;;;;;;15.60;10.53;;;30.30;56.00;;;;;;5055595;28;21921;-86
2023/06/22 08:02:41;;;;;;;14.23;11.87;;;30.40;56.50;;;;;;5061475;28;20946;-86
2023/06/22 08:05:09;;;;;;;12.23;10.83;;;30.40;55.70;;;;;;5037893;28;20443;-86
2023/06/22 08:07:37;;;;;;;16.00;13.07;;;30.40;55.10;;;;;;5059267;28;21137;-85
2023/06/22 08:10:05;;;;;;;20.87;13.20;;;30.50;55.70;;;;;;5080525;28;20467;-86
2023/06/22 08:12:32;;;;;;;13.67;12.20;;;30.40;55.00;;;;;;5073688;28;20459;-85
2023/06/22 08:14:59;;;;;;;13.20;11.10;;;30.50;55.80;;;;;;5058914;28;20512;-86
2023/06/22 08:17:27;;;;;;;12.70;11.40;;;30.50;55.00;;;;;;5074219;28;20513;-85
2023/06/22 08:19:55;;;;;;;14.97;11.00;;;30.50;55.10;;;;;;5062232;28;20456;-85
2023/06/22 08:22:22;;;;;;;12.40;11.03;;;30.80;55.70;;;;;;5039316;28;20438;-86
2023/06/22 08:24:49;;;;;;;14.00;11.33;;;31.00;54.50;;;;;;5055102;28;20834;-86
2023/06/22 08:27:18;;;;;;;12.43;11.03;;;31.10;53.70;;;;;;5041487;28;20465;-86
2023/06/22 08:29:45;;;;;;;12.83;10.47;;;31.20;53.80;;;;;;5061783;28;20493;-86
2023/06/22 08:32:12;;;;;;;11.33;10.20;;;31.10;53.00;;;;;;5081312;28;20440;-85
2023/06/22 08:34:41;;;;;;;11.57;10.45;;;31.30;54.00;;;;;;5086728;28;20454;-87
2023/06/22 08:37:10;;;;;;;12.13;11.03;;;31.50;53.70;;;;;;5046510;28;20249;-87
2023/06/22 08:39:38;;;;;;;10.80;9.70;;;31.50;51.90;;;;;;5063388;28;20980;-85
2023/06/22 08:42:06;;;;;;;13.70;11.23;;;31.50;52.20;;;;;;5063503;28;20439;-87
2023/06/22 08:44:33;;;;;;;13.07;10.50;;;31.50;51.20;;;;;;5063752;28;20451;-85
2023/06/22 08:47:02;;;;;;;11.60;9.97;;;31.80;51.50;;;;;;5037725;28;20511;-86
2023/06/22 08:49:29;;;;;;;10.95;9.95;;;31.90;51.50;;;;;;5036300;28;20973;-86
2023/06/22 08:51:56;;;;;;;12.47;10.17;;;31.90;50.90;;;;;;5064184;28;20213;-87
2023/06/22 08:54:25;;;;;;;13.23;9.90;;;31.90;49.40;;;;;;5048542;28;20898;-86
2023/06/22 08:56:52;;;;;;;11.23;10.23;;;32.10;50.30;;;;;;5095880;28;20464;-87
2023/06/22 08:59:19;;;;;;;12.13;10.93;;;32.20;50.10;;;;;;5079705;28;20446;-86
2023/06/22 09:01:48;;;;;;;11.37;10.17;;;32.20;49.40;;;;;;5061370;28;20481;-85
2023/06/22 09:04:16;;;;;;;10.77;9.73;;;32.20;49.50;;;;;;5044463;28;20519;-86
2023/06/22 09:06:45;;;;;;;13.73;9.63;;;32.20;49.40;;;;;;5079276;28;20447;-85
2023/06/22 09:09:13;;;;;;;14.75;10.40;;;32.20;49.70;;;;;;5092531;28;20527;-85
2023/06/22 09:11:42;;;;;;;16.63;11.03;;;32.30;48.90;;;;;;5043088;28;20210;-86
2023/06/22 09:14:09;;;;;;;11.20;10.10;;;32.40;49.10;;;;;;5058528;28;20535;-86
2023/06/22 09:16:36;;;;;;;11.00;9.90;;;32.60;48.50;;;;;;5072911;28;20470;-86
2023/06/22 09:19:03;;;;;;;13.73;9.40;;;32.70;48.30;;;;;;5103638;27;20450;-86
2023/06/22 09:21:30;;;;;;;10.37;9.30;;;32.90;48.60;;;;;;5066487;28;20989;-85
2023/06/22 09:23:57;;;;;;;11.93;9.43;;;33.00;47.60;;;;;;5056873;28;20466;-86
2023/06/22 09:26:27;;;;;;;11.30;10.30;;;33.20;48.30;;;;;;5070158;28;20454;-86
2023/06/22 09:28:55;;;;;;;12.17;9.70;;;33.40;47.00;;;;;;5061951;28;20435;-86
2023/06/22 09:31:25;;;;;;;11.43;9.87;;;33.20;46.60;;;;;;5063973;28;21276;-86
2023/06/22 09:33:54;;;;;;;12.93;9.53;;;33.30;47.40;;;;;;5067168;28;20451;-86
2023/06/22 09:36:21;;;;;;;12.07;9.53;;;33.40;46.30;;;;;;5053091;28;20486;-86
2023/06/22 09:38:48;;;;;;;11.17;9.10;;;33.20;45.70;;;;;;5068847;28;20949;-86
2023/06/22 09:41:15;;;;;;;11.33;9.43;;;33.20;46.40;;;;;;5056258;28;20458;-86
2023/06/22 09:43:42;;;;;;;10.40;9.40;;;33.50;47.00;;;;;;5086993;28;20550;-86
2023/06/22 09:46:11;;;;;;;9.70;8.75;;;33.80;45.00;;;;;;5071158;28;21195;-86
2023/06/22 09:48:38;;;;;;;10.33;9.10;;;33.40;46.50;;;;;;5053460;28;20194;-86
2023/06/22 09:51:05;;;;;;;10.60;8.18;;;33.40;45.30;;;;;;5074585;28;20487;-86
2023/06/22 09:53:32;;;;;;;12.40;9.80;;;33.50;45.70;;;;;;5071465;28;20198;-85
2023/06/22 09:56:00;;;;;;;11.07;9.82;;;33.50;45.60;;;;;;5072052;28;21049;-86
2023/06/22 09:58:27;;;;;;;10.40;9.43;;;33.80;44.90;;;;;;5035559;28;20221;-85
2023/06/22 10:00:54;;;;;;;13.00;9.50;;;33.90;44.30;;;;;;5070612;28;20528;-86
2023/06/22 10:03:22;;;;;;;11.40;9.33;;;33.90;45.30;;;;;;5053324;28;20459;-85
2023/06/22 10:05:49;;;;;;;11.30;9.90;;;34.20;43.60;;;;;;5095980;27;20458;-86
2023/06/22 10:08:16;;;;;;;9.03;8.13;;;34.00;44.00;;;;;;5043546;28;20461;-86
2023/06/22 10:10:43;;;;;;;10.70;9.63;;;34.10;44.40;;;;;;5065561;28;21001;-85
2023/06/22 10:13:11;;;;;;;10.50;9.50;;;34.20;44.70;;;;;;5060616;28;20437;-86
2023/06/22 10:15:38;;;;;;;13.63;9.60;;;34.30;43.30;;;;;;5058961;28;20456;-86
2023/06/22 10:18:06;;;;;;;8.53;7.73;;;34.40;43.10;;;;;;5071407;28;20471;-87
2023/06/22 10:20:35;;;;;;;11.40;8.10;;;34.30;43.00;;;;;;5068424;28;20462;-87
2023/06/22 10:23:02;;;;;;;11.30;7.30;;;34.20;43.00;;;;;;5069818;28;20452;-87
2023/06/22 10:25:30;;;;;;;9.10;8.20;;;34.50;43.60;;;;;;5072225;28;20452;-85
2023/06/22 10:27:57;;;;;;;8.70;7.80;;;35.00;43.50;;;;;;5069431;28;20796;-86
2023/06/22 10:30:24;;;;;;;11.23;8.27;;;35.00;41.50;;;;;;5054807;28;20848;-87
2023/06/22 10:32:51;;;;;;;9.03;7.37;;;35.00;42.10;;;;;;5073228;28;20522;-86
2023/06/22 10:35:18;;;;;;;9.15;7.40;;;34.70;40.50;;;;;;5061297;28;20443;-86
2023/06/22 10:37:47;;;;;;;8.00;7.30;;;34.70;41.40;;;;;;5069527;28;20708;-87
2023/06/22 10:40:15;;;;;;;15.00;8.30;;;34.80;41.40;;;;;;5063674;28;21012;-87
2023/06/22 10:42:42;;;;;;;10.30;7.00;;;34.90;41.10;;;;;;5078552;28;20448;-87
2023/06/22 10:45:10;;;;;;;8.30;7.30;;;35.00;40.10;;;;;;5056170;28;20485;-87
2023/06/22 10:47:37;;;;;;;10.77;7.53;;;35.00;41.30;;;;;;5069050;28;20447;-86
2023/06/22 10:50:05;;;;;;;9.87;7.10;;;35.20;40.70;;;;;;5102679;27;20577;-86
2023/06/22 10:52:32;;;;;;;8.47;6.53;;;35.30;41.50;;;;;;5092879;28;20438;-87
2023/06/22 10:55:00;;;;;;;8.30;6.70;;;35.40;41.30;;;;;;5071169;28;20447;-86
2023/06/22 10:57:27;;;;;;;7.07;6.30;;;35.30;40.10;;;;;;5073692;28;20983;-86
2023/06/22 10:59:54;;;;;;;9.10;6.30;;;35.50;40.90;;;;;;5097588;28;20467;-86
2023/06/22 11:02:21;;;;;;;11.93;6.63;;;35.40;39.00;;;;;;5076993;28;20456;-86
2023/06/22 11:04:48;;;;;;;8.53;5.83;;;35.30;39.60;;;;;;5072001;28;20983;-86
2023/06/22 11:07:16;;;;;;;11.65;6.43;;;35.30;40.10;;;;;;5066801;28;20874;-85
2023/06/22 11:09:44;;;;;;;7.83;6.27;;;35.40;40.70;;;;;;5077701;28;20209;-86
2023/06/22 11:12:12;;;;;;;7.53;5.63;;;35.20;38.50;;;;;;5058614;28;20550;-86
2023/06/22 11:14:39;;;;;;;7.27;5.93;;;35.00;39.60;;;;;;5043610;28;20456;-87
2023/06/22 11:17:07;;;;;;;9.27;5.23;;;35.10;41.60;;;;;;5080919;28;20471;-86
2023/06/22 11:19:34;;;;;;;7.27;5.80;;;35.20;40.10;;;;;;5073621;28;20503;-86
2023/06/22 11:22:01;;;;;;;13.87;5.90;;;35.40;37.80;;;;;;5040127;28;20456;-86
2023/06/22 11:24:28;;;;;;;15.20;5.63;;;35.30;38.50;;;;;;5077232;28;20455;-87
2023/06/22 11:26:55;;;;;;;9.83;6.70;;;35.60;38.30;;;;;;5071324;28;20451;-86
2023/06/22 11:29:24;;;;;;;6.60;5.17;;;36.00;38.90;;;;;;5091661;28;20454;-86
2023/06/22 11:31:50;;;;;;;6.30;4.97;;;36.00;37.20;;;;;;5065258;28;20459;-86
2023/06/22 11:34:18;;;;;;;6.80;6.03;;;35.80;37.80;;;;;;5088600;28;20452;-86
2023/06/22 11:36:47;;;;;;;7.07;6.00;;;35.60;38.70;;;;;;5060740;28;20489;-86
2023/06/22 11:39:14;;;;;;;10.30;5.80;;;35.50;39.10;;;;;;5072899;28;20448;-86
2023/06/22 11:41:42;;;;;;;9.97;5.97;;;35.40;38.40;;;;;;5079969;28;20455;-86
2023/06/22 11:44:09;;;;;;;10.80;5.97;;;35.80;40.00;;;;;;5097147;27;21800;-86
2023/06/22 11:46:37;;;;;;;9.27;5.85;;;36.10;37.50;;;;;;5058217;28;20458;-87
2023/06/22 11:49:04;;;;;;;6.90;6.03;;;36.20;37.60;;;;;;5079037;28;20632;-86
2023/06/22 11:51:32;;;;;;;13.30;6.10;;;36.40;36.60;;;;;;5072238;28;20455;-87
2023/06/22 11:53:59;;;;;;;7.17;5.50;;;36.40;38.10;;;;;;5054816;28;21010;-86
2023/06/22 11:56:27;;;;;;;9.13;6.77;;;36.50;38.20;;;;;;5044327;28;20454;-87
2023/06/22 11:58:55;;;;;;;7.50;5.13;;;36.30;36.10;;;;;;5071463;28;20440;-87
2023/06/22 12:01:21;;;;;;;7.10;5.53;;;36.20;37.60;;;;;;5053589;28;20525;-86
2023/06/22 12:03:50;;;;;;;7.30;5.60;;;36.20;38.50;;;;;;5064488;28;21216;-86
2023/06/22 12:06:18;;;;;;;9.10;5.10;;;36.00;38.00;;;;;;5096049;28;20495;-87
2023/06/22 12:08:45;;;;;;;8.17;5.50;;;36.10;38.30;;;;;;5076016;28;20447;-86
2023/06/22 12:11:12;;;;;;;6.40;5.27;;;36.30;37.50;;;;;;5067582;28;20517;-87
2023/06/22 12:13:39;;;;;;;5.90;5.30;;;36.00;37.30;;;;;;5073360;28;20455;-86
2023/06/22 12:16:06;;;;;;;8.03;6.20;;;35.80;37.80;;;;;;5085706;28;20979;-87
2023/06/22 12:18:33;;;;;;;7.10;6.40;;;35.70;38.60;;;;;;5086816;28;21281;-86
2023/06/22 12:21:01;;;;;;;7.70;5.57;;;35.70;39.30;;;;;;5085255;28;20835;-88
2023/06/22 12:23:28;;;;;;;6.70;5.77;;;35.70;39.40;;;;;;5063369;28;20447;-88
2023/06/22 12:25:55;;;;;;;8.30;5.10;;;35.70;39.30;;;;;;5072593;28;20458;-88
2023/06/22 12:28:23;;;;;;;6.03;5.37;;;35.80;38.60;;;;;;5103425;27;20437;-87
2023/06/22 12:30:50;;;;;;;7.50;6.03;;;35.80;40.00;;;;;;5085512;28;20463;-87
2023/06/22 12:33:17;;;;;;;6.47;5.40;;;36.00;39.70;;;;;;5102969;27;20443;-87